sensor_id;sensor_type;location;lat;lon;timestamp;P1;durP1;ratioP1;P2;durP2;ratioP2
18162;SDS011;9206;50.994;4.538;2023-07-20T00:00:04;5.10;;;3.30;;
18162;SDS011;9206;50.994;4.538;2023-07-20T00:06:05;4.78;;;3.40;;
18162;SDS011;9206;50.994;4.538;2023-07-20T00:08:55;8.70;;;3.90;;
18162;SDS011;9206;50.994;4.538;2023-07-20T00:11:50;5.18;;;3.80;;
18162;SDS011;9206;50.994;4.538;2023-07-20T00:14:40;6.35;;;3.30;;
18162;SDS011;9206;50.994;4.538;2023-07-20T00:17:32;4.13;;;3.70;;
18162;SDS011;9206;50.994;4.538;2023-07-20T00:20:23;4.80;;;3.20;;
18162;SDS011;9206;50.994;4.538;2023-07-20T00:23:10;5.18;;;3.50;;
18162;SDS011;9206;50.994;4.538;2023-07-20T00:25:58;4.97;;;3.15;;
18162;SDS011;9206;50.994;4.538;2023-07-20T00:28:51;6.68;;;3.42;;
18162;SDS011;9206;50.994;4.538;2023-07-20T00:31:44;3.88;;;3.33;;
18162;SDS011;9206;50.994;4.538;2023-07-20T00:34:36;4.45;;;3.47;;
18162;SDS011;9206;50.994;4.538;2023-07-20T00:37:23;6.43;;;3.53;;
18162;SDS011;9206;50.994;4.538;2023-07-20T00:40:23;3.92;;;3.53;;
18162;SDS011;9206;50.994;4.538;2023-07-20T00:43:12;6.82;;;2.90;;
18162;SDS011;9206;50.994;4.538;2023-07-20T00:46:01;4.88;;;3.60;;
18162;SDS011;9206;50.994;4.538;2023-07-20T00:48:50;5.00;;;3.67;;
18162;SDS011;9206;50.994;4.538;2023-07-20T00:54:32;7.85;;;3.78;;
18162;SDS011;9206;50.994;4.538;2023-07-20T00:57:21;6.03;;;3.45;;
18162;SDS011;9206;50.994;4.538;2023-07-20T01:00:10;3.63;;;3.33;;
18162;SDS011;9206;50.994;4.538;2023-07-20T01:03:01;5.72;;;3.90;;
18162;SDS011;9206;50.994;4.538;2023-07-20T01:05:51;7.38;;;3.65;;
18162;SDS011;9206;50.994;4.538;2023-07-20T01:08:52;3.60;;;3.30;;
18162;SDS011;9206;50.994;4.538;2023-07-20T01:11:52;8.43;;;3.97;;
18162;SDS011;9206;50.994;4.538;2023-07-20T01:14:48;5.65;;;3.78;;
18162;SDS011;9206;50.994;4.538;2023-07-20T01:17:38;5.25;;;4.15;;
18162;SDS011;9206;50.994;4.538;2023-07-20T01:20:33;5.68;;;3.97;;
18162;SDS011;9206;50.994;4.538;2023-07-20T01:23:28;5.65;;;4.32;;
18162;SDS011;9206;50.994;4.538;2023-07-20T01:26:37;5.57;;;4.32;;
18162;SDS011;9206;50.994;4.538;2023-07-20T01:29:52;4.20;;;3.72;;
18162;SDS011;9206;50.994;4.538;2023-07-20T01:32:58;6.32;;;4.30;;
18162;SDS011;9206;50.994;4.538;2023-07-20T01:35:51;5.80;;;4.35;;
18162;SDS011;9206;50.994;4.538;2023-07-20T01:38:44;5.97;;;4.47;;
18162;SDS011;9206;50.994;4.538;2023-07-20T01:41:41;5.50;;;4.47;;
18162;SDS011;9206;50.994;4.538;2023-07-20T01:44:30;8.98;;;4.97;;
18162;SDS011;9206;50.994;4.538;2023-07-20T01:47:18;7.03;;;5.25;;
18162;SDS011;9206;50.994;4.538;2023-07-20T01:50:08;4.65;;;4.20;;
18162;SDS011;9206;50.994;4.538;2023-07-20T01:52:55;8.48;;;4.57;;
18162;SDS011;9206;50.994;4.538;2023-07-20T01:55:45;11.63;;;5.38;;
18162;SDS011;9206;50.994;4.538;2023-07-20T01:58:38;10.48;;;5.00;;
18162;SDS011;9206;50.994;4.538;2023-07-20T02:01:27;10.95;;;5.55;;
18162;SDS011;9206;50.994;4.538;2023-07-20T02:04:31;11.20;;;5.38;;
18162;SDS011;9206;50.994;4.538;2023-07-20T02:07:21;13.02;;;5.95;;
18162;SDS011;9206;50.994;4.538;2023-07-20T02:10:17;8.32;;;5.28;;
18162;SDS011;9206;50.994;4.538;2023-07-20T02:13:07;9.38;;;5.43;;
18162;SDS011;9206;50.994;4.538;2023-07-20T02:15:54;10.85;;;5.60;;
18162;SDS011;9206;50.994;4.538;2023-07-20T02:18:44;7.30;;;6.20;;
18162;SDS011;9206;50.994;4.538;2023-07-20T02:24:29;14.68;;;6.28;;
18162;SDS011;9206;50.994;4.538;2023-07-20T02:27:16;9.93;;;6.63;;
18162;SDS011;9206;50.994;4.538;2023-07-20T02:30:04;9.65;;;6.50;;
18162;SDS011;9206;50.994;4.538;2023-07-20T02:32:58;14.10;;;6.90;;
18162;SDS011;9206;50.994;4.538;2023-07-20T02:35:51;13.93;;;7.38;;
18162;SDS011;9206;50.994;4.538;2023-07-20T02:38:41;8.95;;;6.68;;
18162;SDS011;9206;50.994;4.538;2023-07-20T02:41:32;15.43;;;7.57;;
18162;SDS011;9206;50.994;4.538;2023-07-20T02:44:21;9.13;;;6.90;;
18162;SDS011;9206;50.994;4.538;2023-07-20T02:47:14;12.40;;;7.20;;
18162;SDS011;9206;50.994;4.538;2023-07-20T02:50:08;15.63;;;7.07;;
18162;SDS011;9206;50.994;4.538;2023-07-20T02:52:56;13.43;;;7.43;;
18162;SDS011;9206;50.994;4.538;2023-07-20T02:55:49;15.43;;;7.50;;
18162;SDS011;9206;50.994;4.538;2023-07-20T02:58:40;14.57;;;7.43;;
18162;SDS011;9206;50.994;4.538;2023-07-20T03:01:37;11.50;;;7.90;;
18162;SDS011;9206;50.994;4.538;2023-07-20T03:04:25;17.05;;;8.75;;
18162;SDS011;9206;50.994;4.538;2023-07-20T03:07:13;9.20;;;7.43;;
18162;SDS011;9206;50.994;4.538;2023-07-20T03:10:00;11.13;;;8.40;;
18162;SDS011;9206;50.994;4.538;2023-07-20T03:12:54;12.73;;;9.50;;
18162;SDS011;9206;50.994;4.538;2023-07-20T03:15:46;17.77;;;9.43;;
18162;SDS011;9206;50.994;4.538;2023-07-20T03:18:36;15.70;;;8.63;;
18162;SDS011;9206;50.994;4.538;2023-07-20T03:21:31;8.93;;;8.07;;
18162;SDS011;9206;50.994;4.538;2023-07-20T03:24:24;13.00;;;8.77;;
18162;SDS011;9206;50.994;4.538;2023-07-20T03:27:12;17.48;;;9.15;;
18162;SDS011;9206;50.994;4.538;2023-07-20T03:30:02;18.95;;;9.38;;
18162;SDS011;9206;50.994;4.538;2023-07-20T03:32:59;15.17;;;9.07;;
18162;SDS011;9206;50.994;4.538;2023-07-20T03:35:52;18.17;;;9.10;;
18162;SDS011;9206;50.994;4.538;2023-07-20T03:38:43;13.10;;;9.07;;
18162;SDS011;9206;50.994;4.538;2023-07-20T03:41:34;12.90;;;9.33;;
18162;SDS011;9206;50.994;4.538;2023-07-20T03:44:22;11.80;;;9.43;;
18162;SDS011;9206;50.994;4.538;2023-07-20T03:47:15;12.90;;;9.27;;
18162;SDS011;9206;50.994;4.538;2023-07-20T03:50:06;17.43;;;9.30;;
18162;SDS011;9206;50.994;4.538;2023-07-20T03:53:01;13.73;;;10.00;;
18162;SDS011;9206;50.994;4.538;2023-07-20T03:55:54;12.20;;;9.80;;
18162;SDS011;9206;50.994;4.538;2023-07-20T03:58:41;11.70;;;8.93;;
18162;SDS011;9206;50.994;4.538;2023-07-20T04:01:30;11.43;;;9.30;;
18162;SDS011;9206;50.994;4.538;2023-07-20T04:04:24;12.97;;;9.10;;
18162;SDS011;9206;50.994;4.538;2023-07-20T04:07:15;22.35;;;9.82;;
18162;SDS011;9206;50.994;4.538;2023-07-20T04:10:02;14.18;;;9.20;;
18162;SDS011;9206;50.994;4.538;2023-07-20T04:12:51;11.73;;;9.93;;
18162;SDS011;9206;50.994;4.538;2023-07-20T04:15:39;15.70;;;9.93;;
18162;SDS011;9206;50.994;4.538;2023-07-20T04:18:27;18.83;;;10.48;;
18162;SDS011;9206;50.994;4.538;2023-07-20T04:21:20;16.88;;;9.85;;
18162;SDS011;9206;50.994;4.538;2023-07-20T04:24:15;16.92;;;10.18;;
18162;SDS011;9206;50.994;4.538;2023-07-20T04:27:03;16.45;;;9.98;;
18162;SDS011;9206;50.994;4.538;2023-07-20T04:29:57;11.55;;;10.15;;
18162;SDS011;9206;50.994;4.538;2023-07-20T04:32:46;18.27;;;11.23;;
18162;SDS011;9206;50.994;4.538;2023-07-20T04:35:46;20.00;;;10.50;;
18162;SDS011;9206;50.994;4.538;2023-07-20T04:38:42;12.73;;;10.95;;
18162;SDS011;9206;50.994;4.538;2023-07-20T04:41:33;15.18;;;10.20;;
18162;SDS011;9206;50.994;4.538;2023-07-20T04:44:30;17.48;;;10.48;;
18162;SDS011;9206;50.994;4.538;2023-07-20T04:47:23;11.65;;;10.43;;
18162;SDS011;9206;50.994;4.538;2023-07-20T04:50:11;12.43;;;10.57;;
18162;SDS011;9206;50.994;4.538;2023-07-20T04:52:59;13.65;;;10.82;;
18162;SDS011;9206;50.994;4.538;2023-07-20T04:55:53;12.77;;;10.27;;
18162;SDS011;9206;50.994;4.538;2023-07-20T04:58:50;17.17;;;10.73;;
18162;SDS011;9206;50.994;4.538;2023-07-20T05:01:43;20.13;;;11.02;;
18162;SDS011;9206;50.994;4.538;2023-07-20T05:04:33;12.88;;;10.95;;
18162;SDS011;9206;50.994;4.538;2023-07-20T05:07:38;19.73;;;11.63;;
18162;SDS011;9206;50.994;4.538;2023-07-20T05:10:34;11.63;;;9.90;;
18162;SDS011;9206;50.994;4.538;2023-07-20T05:13:25;10.38;;;9.38;;
18162;SDS011;9206;50.994;4.538;2023-07-20T05:16:58;14.88;;;10.48;;
18162;SDS011;9206;50.994;4.538;2023-07-20T05:19:45;15.32;;;10.35;;
18162;SDS011;9206;50.994;4.538;2023-07-20T05:22:32;11.93;;;10.60;;
18162;SDS011;9206;50.994;4.538;2023-07-20T05:25:21;14.45;;;10.52;;
18162;SDS011;9206;50.994;4.538;2023-07-20T05:28:09;18.40;;;10.63;;
18162;SDS011;9206;50.994;4.538;2023-07-20T05:30:56;13.45;;;10.32;;
18162;SDS011;9206;50.994;4.538;2023-07-20T05:34:03;13.80;;;9.60;;
18162;SDS011;9206;50.994;4.538;2023-07-20T05:36:51;12.63;;;11.23;;
18162;SDS011;9206;50.994;4.538;2023-07-20T05:39:40;12.00;;;8.95;;
18162;SDS011;9206;50.994;4.538;2023-07-20T05:42:29;15.32;;;10.15;;
18162;SDS011;9206;50.994;4.538;2023-07-20T05:45:20;9.52;;;8.52;;
18162;SDS011;9206;50.994;4.538;2023-07-20T05:48:10;11.77;;;9.25;;
18162;SDS011;9206;50.994;4.538;2023-07-20T05:51:02;11.93;;;10.35;;
18162;SDS011;9206;50.994;4.538;2023-07-20T05:54:23;11.25;;;9.57;;
18162;SDS011;9206;50.994;4.538;2023-07-20T05:57:13;15.05;;;9.27;;
18162;SDS011;9206;50.994;4.538;2023-07-20T06:00:02;12.70;;;9.18;;
18162;SDS011;9206;50.994;4.538;2023-07-20T06:02:50;10.40;;;9.23;;
18162;SDS011;9206;50.994;4.538;2023-07-20T06:05:44;9.82;;;8.82;;
18162;SDS011;9206;50.994;4.538;2023-07-20T06:08:33;10.73;;;8.57;;
18162;SDS011;9206;50.994;4.538;2023-07-20T06:11:22;8.65;;;7.88;;
18162;SDS011;9206;50.994;4.538;2023-07-20T06:14:10;10.60;;;9.02;;
18162;SDS011;9206;50.994;4.538;2023-07-20T06:17:01;10.10;;;8.00;;
18162;SDS011;9206;50.994;4.538;2023-07-20T06:19:48;8.98;;;8.20;;
18162;SDS011;9206;50.994;4.538;2023-07-20T06:22:38;12.88;;;7.88;;
18162;SDS011;9206;50.994;4.538;2023-07-20T06:25:38;8.88;;;8.00;;
18162;SDS011;9206;50.994;4.538;2023-07-20T06:28:25;8.50;;;7.80;;
18162;SDS011;9206;50.994;4.538;2023-07-20T06:31:14;9.27;;;8.45;;
18162;SDS011;9206;50.994;4.538;2023-07-20T06:34:07;8.95;;;6.97;;
18162;SDS011;9206;50.994;4.538;2023-07-20T06:37:00;8.27;;;7.53;;
18162;SDS011;9206;50.994;4.538;2023-07-20T06:39:48;8.00;;;7.18;;
18162;SDS011;9206;50.994;4.538;2023-07-20T06:42:37;8.77;;;7.85;;
18162;SDS011;9206;50.994;4.538;2023-07-20T06:45:25;8.00;;;7.40;;
18162;SDS011;9206;50.994;4.538;2023-07-20T06:48:14;7.55;;;5.75;;
18162;SDS011;9206;50.994;4.538;2023-07-20T06:51:07;8.18;;;7.35;;
18162;SDS011;9206;50.994;4.538;2023-07-20T06:53:55;7.57;;;6.97;;
18162;SDS011;9206;50.994;4.538;2023-07-20T06:56:48;7.03;;;6.53;;
18162;SDS011;9206;50.994;4.538;2023-07-20T06:59:38;7.28;;;6.60;;
18162;SDS011;9206;50.994;4.538;2023-07-20T07:02:32;7.43;;;6.93;;
18162;SDS011;9206;50.994;4.538;2023-07-20T07:05:25;7.35;;;6.75;;
18162;SDS011;9206;50.994;4.538;2023-07-20T07:08:16;6.57;;;6.03;;
18162;SDS011;9206;50.994;4.538;2023-07-20T07:11:03;6.35;;;5.85;;
18162;SDS011;9206;50.994;4.538;2023-07-20T07:16:47;5.68;;;5.18;;
18162;SDS011;9206;50.994;4.538;2023-07-20T07:19:45;4.20;;;3.80;;
18162;SDS011;9206;50.994;4.538;2023-07-20T07:22:34;5.35;;;4.93;;
18162;SDS011;9206;50.994;4.538;2023-07-20T07:25:27;8.88;;;4.90;;
18162;SDS011;9206;50.994;4.538;2023-07-20T07:28:18;3.72;;;3.53;;
18162;SDS011;9206;50.994;4.538;2023-07-20T07:31:06;4.00;;;3.80;;
18162;SDS011;9206;50.994;4.538;2023-07-20T07:36:51;4.15;;;3.72;;
18162;SDS011;9206;50.994;4.538;2023-07-20T07:39:38;3.60;;;3.30;;
18162;SDS011;9206;50.994;4.538;2023-07-20T07:42:28;4.88;;;4.43;;
18162;SDS011;9206;50.994;4.538;2023-07-20T07:45:16;4.40;;;4.10;;
18162;SDS011;9206;50.994;4.538;2023-07-20T07:48:12;4.40;;;4.10;;
18162;SDS011;9206;50.994;4.538;2023-07-20T07:51:03;3.65;;;3.35;;
18162;SDS011;9206;50.994;4.538;2023-07-20T07:53:57;3.47;;;3.17;;
18162;SDS011;9206;50.994;4.538;2023-07-20T07:59:47;3.90;;;3.60;;
18162;SDS011;9206;50.994;4.538;2023-07-20T08:02:35;3.47;;;3.28;;
18162;SDS011;9206;50.994;4.538;2023-07-20T08:05:25;3.33;;;3.10;;
18162;SDS011;9206;50.994;4.538;2023-07-20T08:08:15;3.22;;;2.97;;
18162;SDS011;9206;50.994;4.538;2023-07-20T08:11:04;3.20;;;3.00;;
18162;SDS011;9206;50.994;4.538;2023-07-20T08:13:57;2.90;;;2.70;;
18162;SDS011;9206;50.994;4.538;2023-07-20T08:16:46;2.72;;;2.53;;
18162;SDS011;9206;50.994;4.538;2023-07-20T08:19:40;2.88;;;2.58;;
18162;SDS011;9206;50.994;4.538;2023-07-20T08:22:27;2.70;;;2.60;;
18162;SDS011;9206;50.994;4.538;2023-07-20T08:30:58;4.07;;;2.30;;
18162;SDS011;9206;50.994;4.538;2023-07-20T08:33:45;3.17;;;2.17;;
18162;SDS011;9206;50.994;4.538;2023-07-20T08:36:33;2.10;;;2.00;;
18162;SDS011;9206;50.994;4.538;2023-07-20T08:39:28;2.08;;;1.98;;
18162;SDS011;9206;50.994;4.538;2023-07-20T08:42:23;1.92;;;1.83;;
18162;SDS011;9206;50.994;4.538;2023-07-20T08:45:11;1.55;;;1.45;;
18162;SDS011;9206;50.994;4.538;2023-07-20T08:48:02;2.30;;;2.20;;
18162;SDS011;9206;50.994;4.538;2023-07-20T08:50:57;1.98;;;1.80;;
18162;SDS011;9206;50.994;4.538;2023-07-20T08:53:52;2.00;;;1.70;;
18162;SDS011;9206;50.994;4.538;2023-07-20T08:56:45;1.88;;;1.77;;
18162;SDS011;9206;50.994;4.538;2023-07-20T08:59:34;1.75;;;1.65;;
18162;SDS011;9206;50.994;4.538;2023-07-20T09:02:29;5.18;;;1.90;;
18162;SDS011;9206;50.994;4.538;2023-07-20T09:05:23;1.63;;;1.60;;
18162;SDS011;9206;50.994;4.538;2023-07-20T09:08:11;1.75;;;1.65;;
18162;SDS011;9206;50.994;4.538;2023-07-20T09:11:04;1.77;;;1.67;;
18162;SDS011;9206;50.994;4.538;2023-07-20T09:14:03;1.60;;;1.50;;
18162;SDS011;9206;50.994;4.538;2023-07-20T09:16:59;1.70;;;1.60;;
18162;SDS011;9206;50.994;4.538;2023-07-20T09:19:52;1.70;;;1.60;;
18162;SDS011;9206;50.994;4.538;2023-07-20T09:22:46;1.20;;;1.20;;
18162;SDS011;9206;50.994;4.538;2023-07-20T09:25:39;1.35;;;1.25;;
18162;SDS011;9206;50.994;4.538;2023-07-20T09:28:27;1.30;;;1.20;;
18162;SDS011;9206;50.994;4.538;2023-07-20T09:31:15;1.10;;;1.00;;
18162;SDS011;9206;50.994;4.538;2023-07-20T09:34:11;2.47;;;1.42;;
18162;SDS011;9206;50.994;4.538;2023-07-20T09:37:01;1.38;;;1.10;;
18162;SDS011;9206;50.994;4.538;2023-07-20T09:39:55;1.50;;;1.20;;
18162;SDS011;9206;50.994;4.538;2023-07-20T09:42:44;1.70;;;1.60;;
18162;SDS011;9206;50.994;4.538;2023-07-20T09:48:35;1.30;;;1.30;;
18162;SDS011;9206;50.994;4.538;2023-07-20T09:54:16;2.42;;;1.30;;
18162;SDS011;9206;50.994;4.538;2023-07-20T09:57:05;3.65;;;1.85;;
18162;SDS011;9206;50.994;4.538;2023-07-20T10:00:03;1.48;;;1.20;;
18162;SDS011;9206;50.994;4.538;2023-07-20T10:02:58;1.30;;;1.20;;
18162;SDS011;9206;50.994;4.538;2023-07-20T10:05:52;1.10;;;1.10;;
18162;SDS011;9206;50.994;4.538;2023-07-20T10:08:45;2.15;;;0.90;;
18162;SDS011;9206;50.994;4.538;2023-07-20T10:11:41;1.00;;;0.80;;
18162;SDS011;9206;50.994;4.538;2023-07-20T10:14:44;0.90;;;0.90;;
18162;SDS011;9206;50.994;4.538;2023-07-20T10:17:42;0.88;;;0.88;;
18162;SDS011;9206;50.994;4.538;2023-07-20T10:20:36;1.33;;;0.80;;
18162;SDS011;9206;50.994;4.538;2023-07-20T10:23:26;1.20;;;1.10;;
18162;SDS011;9206;50.994;4.538;2023-07-20T10:26:17;1.27;;;0.73;;
18162;SDS011;9206;50.994;4.538;2023-07-20T10:29:04;1.67;;;0.68;;
18162;SDS011;9206;50.994;4.538;2023-07-20T10:31:52;1.35;;;0.88;;
18162;SDS011;9206;50.994;4.538;2023-07-20T10:34:41;0.70;;;0.70;;
18162;SDS011;9206;50.994;4.538;2023-07-20T10:40:53;1.92;;;0.80;;
18162;SDS011;9206;50.994;4.538;2023-07-20T10:43:43;2.03;;;0.73;;
18162;SDS011;9206;50.994;4.538;2023-07-20T10:46:44;3.00;;;0.88;;
18162;SDS011;9206;50.994;4.538;2023-07-20T10:52:49;0.77;;;0.70;;
18162;SDS011;9206;50.994;4.538;2023-07-20T10:56:07;2.55;;;0.80;;
18162;SDS011;9206;50.994;4.538;2023-07-20T10:59:01;0.85;;;0.85;;
18162;SDS011;9206;50.994;4.538;2023-07-20T11:02:24;0.60;;;0.60;;
18162;SDS011;9206;50.994;4.538;2023-07-20T11:08:41;1.67;;;0.90;;
18162;SDS011;9206;50.994;4.538;2023-07-20T11:11:30;1.50;;;0.70;;
18162;SDS011;9206;50.994;4.538;2023-07-20T11:14:25;0.60;;;0.60;;
18162;SDS011;9206;50.994;4.538;2023-07-20T11:17:15;0.70;;;0.70;;
18162;SDS011;9206;50.994;4.538;2023-07-20T11:20:07;0.75;;;0.60;;
18162;SDS011;9206;50.994;4.538;2023-07-20T11:23:03;0.77;;;0.77;;
18162;SDS011;9206;50.994;4.538;2023-07-20T11:25:57;0.68;;;0.68;;
18162;SDS011;9206;50.994;4.538;2023-07-20T11:28:47;0.80;;;0.80;;
18162;SDS011;9206;50.994;4.538;2023-07-20T11:31:40;0.73;;;0.68;;
18162;SDS011;9206;50.994;4.538;2023-07-20T11:34:30;0.70;;;0.70;;
18162;SDS011;9206;50.994;4.538;2023-07-20T11:37:19;0.70;;;0.70;;
18162;SDS011;9206;50.994;4.538;2023-07-20T11:40:17;0.55;;;0.55;;
18162;SDS011;9206;50.994;4.538;2023-07-20T11:43:06;1.38;;;0.80;;
18162;SDS011;9206;50.994;4.538;2023-07-20T11:46:14;0.60;;;0.60;;
18162;SDS011;9206;50.994;4.538;2023-07-20T11:49:05;0.93;;;0.70;;
18162;SDS011;9206;50.994;4.538;2023-07-20T11:51:59;0.70;;;0.70;;
18162;SDS011;9206;50.994;4.538;2023-07-20T11:54:47;0.60;;;0.60;;
18162;SDS011;9206;50.994;4.538;2023-07-20T11:57:41;0.80;;;0.77;;
18162;SDS011;9206;50.994;4.538;2023-07-20T12:00:47;0.77;;;0.77;;
18162;SDS011;9206;50.994;4.538;2023-07-20T12:06:44;0.70;;;0.70;;
18162;SDS011;9206;50.994;4.538;2023-07-20T12:09:33;0.73;;;0.73;;
18162;SDS011;9206;50.994;4.538;2023-07-20T12:12:20;0.90;;;0.90;;
18162;SDS011;9206;50.994;4.538;2023-07-20T12:15:12;1.08;;;0.90;;
18162;SDS011;9206;50.994;4.538;2023-07-20T12:18:04;1.13;;;0.90;;
18162;SDS011;9206;50.994;4.538;2023-07-20T12:20:58;0.68;;;0.68;;
18162;SDS011;9206;50.994;4.538;2023-07-20T12:24:00;1.05;;;0.80;;
18162;SDS011;9206;50.994;4.538;2023-07-20T12:26:48;3.60;;;1.10;;
18162;SDS011;9206;50.994;4.538;2023-07-20T12:29:42;0.93;;;0.90;;
18162;SDS011;9206;50.994;4.538;2023-07-20T12:32:29;0.77;;;0.70;;
18162;SDS011;9206;50.994;4.538;2023-07-20T12:38:14;0.80;;;0.80;;
18162;SDS011;9206;50.994;4.538;2023-07-20T12:41:09;0.70;;;0.70;;
18162;SDS011;9206;50.994;4.538;2023-07-20T12:43:59;1.00;;;0.90;;
18162;SDS011;9206;50.994;4.538;2023-07-20T12:46:47;0.70;;;0.70;;
18162;SDS011;9206;50.994;4.538;2023-07-20T12:49:35;0.60;;;0.60;;
18162;SDS011;9206;50.994;4.538;2023-07-20T12:52:25;1.10;;;1.00;;
18162;SDS011;9206;50.994;4.538;2023-07-20T12:55:13;0.88;;;0.80;;
18162;SDS011;9206;50.994;4.538;2023-07-20T12:58:05;0.68;;;0.68;;
18162;SDS011;9206;50.994;4.538;2023-07-20T13:00:54;1.10;;;1.00;;
18162;SDS011;9206;50.994;4.538;2023-07-20T13:03:45;1.85;;;0.70;;
18162;SDS011;9206;50.994;4.538;2023-07-20T13:06:33;0.90;;;0.90;;
18162;SDS011;9206;50.994;4.538;2023-07-20T13:09:23;0.80;;;0.80;;
18162;SDS011;9206;50.994;4.538;2023-07-20T13:12:16;0.82;;;0.82;;
18162;SDS011;9206;50.994;4.538;2023-07-20T13:15:08;0.77;;;0.70;;
18162;SDS011;9206;50.994;4.538;2023-07-20T13:23:39;1.20;;;1.10;;
18162;SDS011;9206;50.994;4.538;2023-07-20T13:26:26;0.80;;;0.80;;
18162;SDS011;9206;50.994;4.538;2023-07-20T13:29:14;1.63;;;1.05;;
18162;SDS011;9206;50.994;4.538;2023-07-20T13:32:04;1.10;;;1.10;;
18162;SDS011;9206;50.994;4.538;2023-07-20T13:34:58;1.95;;;1.05;;
18162;SDS011;9206;50.994;4.538;2023-07-20T13:37:51;0.90;;;0.90;;
18162;SDS011;9206;50.994;4.538;2023-07-20T13:40:38;2.60;;;1.10;;
18162;SDS011;9206;50.994;4.538;2023-07-20T13:43:31;1.42;;;1.17;;
18162;SDS011;9206;50.994;4.538;2023-07-20T13:46:24;2.28;;;1.10;;
18162;SDS011;9206;50.994;4.538;2023-07-20T13:49:19;1.23;;;1.20;;
18162;SDS011;9206;50.994;4.538;2023-07-20T13:52:08;1.15;;;1.15;;
18162;SDS011;9206;50.994;4.538;2023-07-20T13:54:58;1.40;;;1.30;;
18162;SDS011;9206;50.994;4.538;2023-07-20T13:57:51;1.33;;;1.17;;
18162;SDS011;9206;50.994;4.538;2023-07-20T14:00:38;1.88;;;1.40;;
18162;SDS011;9206;50.994;4.538;2023-07-20T14:03:32;2.92;;;1.50;;
18162;SDS011;9206;50.994;4.538;2023-07-20T14:06:22;4.30;;;1.50;;
18162;SDS011;9206;50.994;4.538;2023-07-20T14:09:24;2.58;;;1.80;;
18162;SDS011;9206;50.994;4.538;2023-07-20T14:12:12;1.50;;;1.40;;
18162;SDS011;9206;50.994;4.538;2023-07-20T14:14:59;2.08;;;1.17;;
18162;SDS011;9206;50.994;4.538;2023-07-20T14:17:47;1.60;;;1.50;;
18162;SDS011;9206;50.994;4.538;2023-07-20T14:20:41;1.63;;;1.52;;
18162;SDS011;9206;50.994;4.538;2023-07-20T14:23:49;1.45;;;1.38;;
18162;SDS011;9206;50.994;4.538;2023-07-20T14:26:39;1.40;;;1.30;;
18162;SDS011;9206;50.994;4.538;2023-07-20T14:32:35;1.60;;;1.50;;
18162;SDS011;9206;50.994;4.538;2023-07-20T14:35:23;1.75;;;1.65;;
18162;SDS011;9206;50.994;4.538;2023-07-20T14:38:11;1.35;;;1.30;;
18162;SDS011;9206;50.994;4.538;2023-07-20T14:43:58;1.33;;;1.27;;
18162;SDS011;9206;50.994;4.538;2023-07-20T14:46:54;2.70;;;1.50;;
18162;SDS011;9206;50.994;4.538;2023-07-20T14:49:56;2.13;;;1.52;;
18162;SDS011;9206;50.994;4.538;2023-07-20T14:52:58;1.60;;;1.55;;
18162;SDS011;9206;50.994;4.538;2023-07-20T14:55:47;1.20;;;1.20;;
18162;SDS011;9206;50.994;4.538;2023-07-20T14:58:37;1.88;;;1.60;;
18162;SDS011;9206;50.994;4.538;2023-07-20T15:01:40;1.40;;;1.40;;
18162;SDS011;9206;50.994;4.538;2023-07-20T15:04:49;1.30;;;1.27;;
18162;SDS011;9206;50.994;4.538;2023-07-20T15:07:38;1.70;;;1.60;;
18162;SDS011;9206;50.994;4.538;2023-07-20T15:10:26;1.63;;;1.52;;
18162;SDS011;9206;50.994;4.538;2023-07-20T15:13:23;1.90;;;1.48;;
18162;SDS011;9206;50.994;4.538;2023-07-20T15:16:13;1.30;;;1.30;;
18162;SDS011;9206;50.994;4.538;2023-07-20T15:19:16;1.35;;;1.35;;
18162;SDS011;9206;50.994;4.538;2023-07-20T15:22:17;1.17;;;1.17;;
18162;SDS011;9206;50.994;4.538;2023-07-20T15:28:09;1.70;;;1.40;;
18162;SDS011;9206;50.994;4.538;2023-07-20T15:31:07;1.58;;;1.40;;
18162;SDS011;9206;50.994;4.538;2023-07-20T15:36:52;1.52;;;1.42;;
18162;SDS011;9206;50.994;4.538;2023-07-20T15:39:43;1.20;;;1.20;;
18162;SDS011;9206;50.994;4.538;2023-07-20T15:42:30;3.20;;;1.42;;
18162;SDS011;9206;50.994;4.538;2023-07-20T15:48:12;1.60;;;1.50;;
18162;SDS011;9206;50.994;4.538;2023-07-20T15:53:59;1.25;;;1.25;;
18162;SDS011;9206;50.994;4.538;2023-07-20T15:56:55;1.27;;;1.27;;
18162;SDS011;9206;50.994;4.538;2023-07-20T15:59:44;3.42;;;1.55;;
18162;SDS011;9206;50.994;4.538;2023-07-20T16:05:28;1.88;;;1.65;;
18162;SDS011;9206;50.994;4.538;2023-07-20T16:08:24;1.52;;;1.52;;
18162;SDS011;9206;50.994;4.538;2023-07-20T16:11:18;2.70;;;1.85;;
18162;SDS011;9206;50.994;4.538;2023-07-20T16:14:11;4.72;;;2.30;;
18162;SDS011;9206;50.994;4.538;2023-07-20T16:17:00;2.70;;;2.50;;
18162;SDS011;9206;50.994;4.538;2023-07-20T16:19:50;3.33;;;2.65;;
18162;SDS011;9206;50.994;4.538;2023-07-20T16:22:48;3.47;;;3.17;;
18162;SDS011;9206;50.994;4.538;2023-07-20T16:25:54;3.65;;;2.80;;
18162;SDS011;9206;50.994;4.538;2023-07-20T16:28:55;3.17;;;2.97;;
18162;SDS011;9206;50.994;4.538;2023-07-20T16:31:48;3.15;;;2.97;;
18162;SDS011;9206;50.994;4.538;2023-07-20T16:34:48;6.40;;;3.00;;
18162;SDS011;9206;50.994;4.538;2023-07-20T16:37:39;4.55;;;2.97;;
18162;SDS011;9206;50.994;4.538;2023-07-20T16:40:30;3.95;;;2.80;;
18162;SDS011;9206;50.994;4.538;2023-07-20T16:43:30;3.35;;;3.05;;
18162;SDS011;9206;50.994;4.538;2023-07-20T16:46:39;3.25;;;3.05;;
18162;SDS011;9206;50.994;4.538;2023-07-20T16:49:45;2.92;;;2.72;;
18162;SDS011;9206;50.994;4.538;2023-07-20T16:52:34;3.63;;;3.30;;
18162;SDS011;9206;50.994;4.538;2023-07-20T16:55:25;3.47;;;3.08;;
18162;SDS011;9206;50.994;4.538;2023-07-20T16:58:15;4.57;;;2.95;;
18162;SDS011;9206;50.994;4.538;2023-07-20T17:01:06;4.80;;;2.90;;
18162;SDS011;9206;50.994;4.538;2023-07-20T17:03:57;2.92;;;2.72;;
18162;SDS011;9206;50.994;4.538;2023-07-20T17:06:46;3.35;;;3.03;;
18162;SDS011;9206;50.994;4.538;2023-07-20T17:09:34;3.17;;;2.50;;
18162;SDS011;9206;50.994;4.538;2023-07-20T17:12:27;5.68;;;3.15;;
18162;SDS011;9206;50.994;4.538;2023-07-20T17:15:17;4.88;;;2.90;;
18162;SDS011;9206;50.994;4.538;2023-07-20T17:18:22;4.85;;;3.25;;
18162;SDS011;9206;50.994;4.538;2023-07-20T17:21:19;3.10;;;2.90;;
18162;SDS011;9206;50.994;4.538;2023-07-20T17:24:16;3.63;;;3.05;;
18162;SDS011;9206;50.994;4.538;2023-07-20T17:27:10;3.72;;;3.28;;
18162;SDS011;9206;50.994;4.538;2023-07-20T17:29:58;3.40;;;3.20;;
18162;SDS011;9206;50.994;4.538;2023-07-20T17:32:52;3.33;;;3.13;;
18162;SDS011;9206;50.994;4.538;2023-07-20T17:35:49;3.22;;;3.03;;
18162;SDS011;9206;50.994;4.538;2023-07-20T17:38:39;3.97;;;3.33;;
18162;SDS011;9206;50.994;4.538;2023-07-20T17:44:22;3.15;;;2.95;;
18162;SDS011;9206;50.994;4.538;2023-07-20T17:47:10;3.78;;;3.47;;
18162;SDS011;9206;50.994;4.538;2023-07-20T17:49:59;4.80;;;3.72;;
18162;SDS011;9206;50.994;4.538;2023-07-20T17:52:48;3.67;;;3.47;;
18162;SDS011;9206;50.994;4.538;2023-07-20T17:55:39;3.80;;;3.60;;
18162;SDS011;9206;50.994;4.538;2023-07-20T17:58:32;3.75;;;3.55;;
18162;SDS011;9206;50.994;4.538;2023-07-20T18:01:23;4.03;;;3.83;;
18162;SDS011;9206;50.994;4.538;2023-07-20T18:04:15;3.67;;;3.38;;
18162;SDS011;9206;50.994;4.538;2023-07-20T18:07:04;6.05;;;3.47;;
18162;SDS011;9206;50.994;4.538;2023-07-20T18:10:00;3.38;;;3.17;;
18162;SDS011;9206;50.994;4.538;2023-07-20T18:12:51;3.42;;;3.13;;
18162;SDS011;9206;50.994;4.538;2023-07-20T18:15:44;3.65;;;3.35;;
18162;SDS011;9206;50.994;4.538;2023-07-20T18:18:38;3.80;;;3.50;;
18162;SDS011;9206;50.994;4.538;2023-07-20T18:21:26;2.85;;;2.75;;
18162;SDS011;9206;50.994;4.538;2023-07-20T18:24:14;3.72;;;3.38;;
18162;SDS011;9206;50.994;4.538;2023-07-20T18:27:04;3.30;;;3.20;;
18162;SDS011;9206;50.994;4.538;2023-07-20T18:29:55;7.40;;;3.50;;
18162;SDS011;9206;50.994;4.538;2023-07-20T18:32:44;3.20;;;3.00;;
18162;SDS011;9206;50.994;4.538;2023-07-20T18:35:33;3.25;;;3.00;;
18162;SDS011;9206;50.994;4.538;2023-07-20T18:38:27;3.63;;;3.40;;
18162;SDS011;9206;50.994;4.538;2023-07-20T18:41:14;3.55;;;3.40;;
18162;SDS011;9206;50.994;4.538;2023-07-20T18:44:14;3.20;;;2.90;;